sensor_id;sensor_type;location;lat;lon;timestamp;temperature;humidity
10433;DHT22;5263;48.680;9.004;2022-07-29T00:00:43;18.60;99.90
10433;DHT22;5263;48.680;9.004;2022-07-29T00:03:13;18.40;99.90
10433;DHT22;5263;48.680;9.004;2022-07-29T00:05:40;18.50;99.90
10433;DHT22;5263;48.680;9.004;2022-07-29T00:08:07;18.40;99.90
10433;DHT22;5263;48.680;9.004;2022-07-29T00:10:33;18.50;99.90
10433;DHT22;5263;48.680;9.004;2022-07-29T00:12:59;18.30;99.90
10433;DHT22;5263;48.680;9.004;2022-07-29T00:15:24;18.00;99.90
10433;DHT22;5263;48.680;9.004;2022-07-29T00:17:50;18.10;99.90
10433;DHT22;5263;48.680;9.004;2022-07-29T00:20:16;18.10;99.90
10433;DHT22;5263;48.680;9.004;2022-07-29T00:22:41;18.00;99.90
10433;DHT22;5263;48.680;9.004;2022-07-29T00:25:07;17.90;99.90
10433;DHT22;5263;48.680;9.004;2022-07-29T00:27:34;17.90;99.90
10433;DHT22;5263;48.680;9.004;2022-07-29T00:30:00;17.90;99.90
10433;DHT22;5263;48.680;9.004;2022-07-29T00:32:26;18.00;99.90
10433;DHT22;5263;48.680;9.004;2022-07-29T00:34:51;17.90;99.90
10433;DHT22;5263;48.680;9.004;2022-07-29T00:37:35;17.90;99.90
10433;DHT22;5263;48.680;9.004;2022-07-29T00:40:01;17.80;99.90
10433;DHT22;5263;48.680;9.004;2022-07-29T00:42:27;17.80;99.90
10433;DHT22;5263;48.680;9.004;2022-07-29T00:44:53;17.90;99.90
10433;DHT22;5263;48.680;9.004;2022-07-29T00:47:18;17.90;99.90
10433;DHT22;5263;48.680;9.004;2022-07-29T00:49:44;17.80;99.90
10433;DHT22;5263;48.680;9.004;2022-07-29T00:52:11;17.80;99.90
10433;DHT22;5263;48.680;9.004;2022-07-29T00:54:38;17.80;99.90
10433;DHT22;5263;48.680;9.004;2022-07-29T00:57:07;17.80;99.90
10433;DHT22;5263;48.680;9.004;2022-07-29T00:59:33;17.80;99.90
10433;DHT22;5263;48.680;9.004;2022-07-29T01:01:59;17.80;99.90
10433;DHT22;5263;48.680;9.004;2022-07-29T01:04:25;17.90;99.90
10433;DHT22;5263;48.680;9.004;2022-07-29T01:06:51;17.60;99.90
10433;DHT22;5263;48.680;9.004;2022-07-29T01:09:18;17.50;99.90
10433;DHT22;5263;48.680;9.004;2022-07-29T01:11:46;17.40;99.90
10433;DHT22;5263;48.680;9.004;2022-07-29T01:14:14;17.30;99.90
10433;DHT22;5263;48.680;9.004;2022-07-29T01:16:52;17.40;99.90
10433;DHT22;5263;48.680;9.004;2022-07-29T01:19:32;17.30;99.90
10433;DHT22;5263;48.680;9.004;2022-07-29T01:22:09;17.20;99.90
10433;DHT22;5263;48.680;9.004;2022-07-29T01:25:02;17.30;99.90
10433;DHT22;5263;48.680;9.004;2022-07-29T01:30:24;17.50;99.90
10433;DHT22;5263;48.680;9.004;2022-07-29T01:32:55;17.40;99.90
10433;DHT22;5263;48.680;9.004;2022-07-29T01:35:35;17.50;99.90
10433;DHT22;5263;48.680;9.004;2022-07-29T01:38:15;17.30;99.90
10433;DHT22;5263;48.680;9.004;2022-07-29T01:40:49;17.30;99.90
10433;DHT22;5263;48.680;9.004;2022-07-29T01:43:20;17.40;99.90
10433;DHT22;5263;48.680;9.004;2022-07-29T01:46:05;17.20;99.90
10433;DHT22;5263;48.680;9.004;2022-07-29T01:48:46;17.10;99.90
10433;DHT22;5263;48.680;9.004;2022-07-29T01:51:29;17.10;99.90
10433;DHT22;5263;48.680;9.004;2022-07-29T01:54:26;17.10;99.90
10433;DHT22;5263;48.680;9.004;2022-07-29T01:56:56;17.20;99.90
10433;DHT22;5263;48.680;9.004;2022-07-29T01:59:23;17.10;99.90
10433;DHT22;5263;48.680;9.004;2022-07-29T02:01:53;17.10;99.90
10433;DHT22;5263;48.680;9.004;2022-07-29T02:04:20;17.00;99.90
10433;DHT22;5263;48.680;9.004;2022-07-29T02:06:48;17.00;99.90
10433;DHT22;5263;48.680;9.004;2022-07-29T02:09:14;17.10;99.90
10433;DHT22;5263;48.680;9.004;2022-07-29T02:11:51;17.10;99.90
10433;DHT22;5263;48.680;9.004;2022-07-29T02:14:19;17.10;99.90
10433;DHT22;5263;48.680;9.004;2022-07-29T02:16:47;17.10;99.90
10433;DHT22;5263;48.680;9.004;2022-07-29T02:19:14;17.00;99.90
10433;DHT22;5263;48.680;9.004;2022-07-29T02:21:40;17.00;99.90
10433;DHT22;5263;48.680;9.004;2022-07-29T02:24:10;17.10;99.90
10433;DHT22;5263;48.680;9.004;2022-07-29T02:26:37;17.10;99.90
10433;DHT22;5263;48.680;9.004;2022-07-29T02:29:04;17.20;99.90
10433;DHT22;5263;48.680;9.004;2022-07-29T02:31:34;17.20;99.90
10433;DHT22;5263;48.680;9.004;2022-07-29T02:34:02;17.20;99.90
10433;DHT22;5263;48.680;9.004;2022-07-29T02:36:29;17.10;99.90
10433;DHT22;5263;48.680;9.004;2022-07-29T02:38:56;17.00;99.90
10433;DHT22;5263;48.680;9.004;2022-07-29T02:41:42;17.10;99.90
10433;DHT22;5263;48.680;9.004;2022-07-29T02:44:14;17.20;99.90
10433;DHT22;5263;48.680;9.004;2022-07-29T02:47:02;17.10;99.90
10433;DHT22;5263;48.680;9.004;2022-07-29T02:49:37;17.00;99.90
10433;DHT22;5263;48.680;9.004;2022-07-29T02:52:08;17.00;99.90
10433;DHT22;5263;48.680;9.004;2022-07-29T02:54:44;16.80;99.90
10433;DHT22;5263;48.680;9.004;2022-07-29T02:57:19;16.80;99.90
10433;DHT22;5263;48.680;9.004;2022-07-29T02:59:48;16.70;99.90
10433;DHT22;5263;48.680;9.004;2022-07-29T03:02:16;16.80;99.90
10433;DHT22;5263;48.680;9.004;2022-07-29T03:04:43;16.70;99.90
10433;DHT22;5263;48.680;9.004;2022-07-29T03:07:11;16.80;99.90
10433;DHT22;5263;48.680;9.004;2022-07-29T03:09:39;16.80;99.90
10433;DHT22;5263;48.680;9.004;2022-07-29T03:12:06;16.80;99.90
10433;DHT22;5263;48.680;9.004;2022-07-29T03:14:32;16.90;99.90
10433;DHT22;5263;48.680;9.004;2022-07-29T03:16:59;16.80;99.90
10433;DHT22;5263;48.680;9.004;2022-07-29T03:19:24;16.90;99.90
10433;DHT22;5263;48.680;9.004;2022-07-29T03:21:51;16.80;99.90
10433;DHT22;5263;48.680;9.004;2022-07-29T03:24:31;16.80;99.90
10433;DHT22;5263;48.680;9.004;2022-07-29T03:26:57;16.80;99.90
10433;DHT22;5263;48.680;9.004;2022-07-29T03:29:23;17.10;99.90
10433;DHT22;5263;48.680;9.004;2022-07-29T03:31:50;17.20;99.90
10433;DHT22;5263;48.680;9.004;2022-07-29T03:34:15;17.20;99.90
10433;DHT22;5263;48.680;9.004;2022-07-29T03:36:41;17.20;99.90
10433;DHT22;5263;48.680;9.004;2022-07-29T03:39:09;17.10;99.90
10433;DHT22;5263;48.680;9.004;2022-07-29T03:41:37;17.10;99.90
10433;DHT22;5263;48.680;9.004;2022-07-29T03:44:05;17.00;99.90
10433;DHT22;5263;48.680;9.004;2022-07-29T03:46:34;17.00;99.90
10433;DHT22;5263;48.680;9.004;2022-07-29T03:49:01;16.80;99.90
10433;DHT22;5263;48.680;9.004;2022-07-29T03:51:28;16.60;99.90
10433;DHT22;5263;48.680;9.004;2022-07-29T03:53:54;16.60;99.90
10433;DHT22;5263;48.680;9.004;2022-07-29T03:56:22;16.70;99.90
10433;DHT22;5263;48.680;9.004;2022-07-29T03:58:50;16.70;99.90
10433;DHT22;5263;48.680;9.004;2022-07-29T04:01:17;16.80;99.90
10433;DHT22;5263;48.680;9.004;2022-07-29T04:03:44;16.70;99.90
10433;DHT22;5263;48.680;9.004;2022-07-29T04:06:14;16.70;99.90
10433;DHT22;5263;48.680;9.004;2022-07-29T04:08:40;16.70;99.90
10433;DHT22;5263;48.680;9.004;2022-07-29T04:11:06;16.80;99.90
10433;DHT22;5263;48.680;9.004;2022-07-29T04:13:32;16.80;99.90
10433;DHT22;5263;48.680;9.004;2022-07-29T04:15:58;16.90;99.90
10433;DHT22;5263;48.680;9.004;2022-07-29T04:18:24;17.00;99.90
10433;DHT22;5263;48.680;9.004;2022-07-29T04:20:50;17.20;99.90
10433;DHT22;5263;48.680;9.004;2022-07-29T04:23:15;17.20;99.90
10433;DHT22;5263;48.680;9.004;2022-07-29T04:25:41;17.20;99.90
10433;DHT22;5263;48.680;9.004;2022-07-29T04:28:07;17.30;99.90
10433;DHT22;5263;48.680;9.004;2022-07-29T04:30:35;17.30;99.90
10433;DHT22;5263;48.680;9.004;2022-07-29T04:33:02;17.30;99.90
10433;DHT22;5263;48.680;9.004;2022-07-29T04:35:29;17.50;99.90
10433;DHT22;5263;48.680;9.004;2022-07-29T04:37:55;17.50;99.90
10433;DHT22;5263;48.680;9.004;2022-07-29T04:40:21;17.50;99.90
10433;DHT22;5263;48.680;9.004;2022-07-29T04:42:46;17.70;99.90
10433;DHT22;5263;48.680;9.004;2022-07-29T04:45:12;17.70;99.90
10433;DHT22;5263;48.680;9.004;2022-07-29T04:47:38;17.60;99.90
10433;DHT22;5263;48.680;9.004;2022-07-29T04:50:04;17.70;99.90
10433;DHT22;5263;48.680;9.004;2022-07-29T04:52:31;17.70;99.90
10433;DHT22;5263;48.680;9.004;2022-07-29T04:54:56;17.70;99.90
10433;DHT22;5263;48.680;9.004;2022-07-29T04:57:22;17.70;99.90
10433;DHT22;5263;48.680;9.004;2022-07-29T04:59:48;17.80;99.90
10433;DHT22;5263;48.680;9.004;2022-07-29T05:02:14;17.80;99.90
10433;DHT22;5263;48.680;9.004;2022-07-29T05:04:40;17.80;99.90
10433;DHT22;5263;48.680;9.004;2022-07-29T05:07:05;17.90;99.90
10433;DHT22;5263;48.680;9.004;2022-07-29T05:09:31;17.90;99.90
10433;DHT22;5263;48.680;9.004;2022-07-29T05:11:57;17.90;99.90
10433;DHT22;5263;48.680;9.004;2022-07-29T05:14:23;17.90;99.90
10433;DHT22;5263;48.680;9.004;2022-07-29T05:16:49;17.90;99.90
10433;DHT22;5263;48.680;9.004;2022-07-29T05:19:16;18.00;99.90
10433;DHT22;5263;48.680;9.004;2022-07-29T05:21:44;18.20;99.90
10433;DHT22;5263;48.680;9.004;2022-07-29T05:24:09;18.40;99.90
10433;DHT22;5263;48.680;9.004;2022-07-29T05:26:35;18.40;99.90
10433;DHT22;5263;48.680;9.004;2022-07-29T05:29:01;18.50;99.90
10433;DHT22;5263;48.680;9.004;2022-07-29T05:31:26;18.70;99.90
10433;DHT22;5263;48.680;9.004;2022-07-29T05:33:52;18.70;99.90
10433;DHT22;5263;48.680;9.004;2022-07-29T05:36:18;18.60;99.90
10433;DHT22;5263;48.680;9.004;2022-07-29T05:38:44;18.60;99.90
10433;DHT22;5263;48.680;9.004;2022-07-29T05:41:10;18.60;99.90
10433;DHT22;5263;48.680;9.004;2022-07-29T05:43:36;18.40;99.90
10433;DHT22;5263;48.680;9.004;2022-07-29T05:46:01;18.50;99.90
10433;DHT22;5263;48.680;9.004;2022-07-29T05:48:27;18.70;99.90
10433;DHT22;5263;48.680;9.004;2022-07-29T05:50:53;18.80;99.90
10433;DHT22;5263;48.680;9.004;2022-07-29T05:53:19;19.00;99.90
10433;DHT22;5263;48.680;9.004;2022-07-29T05:55:45;19.00;99.90
10433;DHT22;5263;48.680;9.004;2022-07-29T05:58:11;19.00;99.90
10433;DHT22;5263;48.680;9.004;2022-07-29T06:00:36;19.00;99.90
10433;DHT22;5263;48.680;9.004;2022-07-29T06:03:02;19.00;99.90
10433;DHT22;5263;48.680;9.004;2022-07-29T06:05:28;19.20;99.90
10433;DHT22;5263;48.680;9.004;2022-07-29T06:07:53;19.20;99.90
10433;DHT22;5263;48.680;9.004;2022-07-29T06:10:19;19.30;99.90
10433;DHT22;5263;48.680;9.004;2022-07-29T06:12:44;19.40;99.90
10433;DHT22;5263;48.680;9.004;2022-07-29T06:15:10;19.50;99.90
10433;DHT22;5263;48.680;9.004;2022-07-29T06:17:36;19.50;99.90
10433;DHT22;5263;48.680;9.004;2022-07-29T06:20:02;19.60;99.90
10433;DHT22;5263;48.680;9.004;2022-07-29T06:22:28;19.90;99.90
10433;DHT22;5263;48.680;9.004;2022-07-29T06:24:54;20.10;99.90
10433;DHT22;5263;48.680;9.004;2022-07-29T06:27:19;20.40;99.90
10433;DHT22;5263;48.680;9.004;2022-07-29T06:29:45;20.60;99.90
10433;DHT22;5263;48.680;9.004;2022-07-29T06:32:11;20.80;99.90
10433;DHT22;5263;48.680;9.004;2022-07-29T06:34:37;21.10;99.90
10433;DHT22;5263;48.680;9.004;2022-07-29T06:37:09;21.20;99.90
10433;DHT22;5263;48.680;9.004;2022-07-29T06:39:35;21.30;99.90
10433;DHT22;5263;48.680;9.004;2022-07-29T06:42:03;21.50;99.90
10433;DHT22;5263;48.680;9.004;2022-07-29T06:44:29;21.40;99.90
10433;DHT22;5263;48.680;9.004;2022-07-29T06:46:55;21.40;99.90
10433;DHT22;5263;48.680;9.004;2022-07-29T06:49:21;21.20;99.90
10433;DHT22;5263;48.680;9.004;2022-07-29T06:51:47;21.20;99.90
10433;DHT22;5263;48.680;9.004;2022-07-29T06:54:12;21.20;99.90
10433;DHT22;5263;48.680;9.004;2022-07-29T06:56:38;21.30;99.90
10433;DHT22;5263;48.680;9.004;2022-07-29T06:59:11;21.60;99.90
10433;DHT22;5263;48.680;9.004;2022-07-29T07:01:37;21.90;99.90
10433;DHT22;5263;48.680;9.004;2022-07-29T07:04:03;21.80;99.90
10433;DHT22;5263;48.680;9.004;2022-07-29T07:06:29;21.80;99.90
10433;DHT22;5263;48.680;9.004;2022-07-29T07:08:55;22.20;99.90
10433;DHT22;5263;48.680;9.004;2022-07-29T07:11:20;22.20;99.90
10433;DHT22;5263;48.680;9.004;2022-07-29T07:13:46;21.90;99.90
10433;DHT22;5263;48.680;9.004;2022-07-29T07:16:11;22.10;99.90
10433;DHT22;5263;48.680;9.004;2022-07-29T07:18:37;22.20;99.90
10433;DHT22;5263;48.680;9.004;2022-07-29T07:21:03;22.30;99.90
10433;DHT22;5263;48.680;9.004;2022-07-29T07:23:30;22.30;99.90
10433;DHT22;5263;48.680;9.004;2022-07-29T07:25:56;22.20;99.90
10433;DHT22;5263;48.680;9.004;2022-07-29T07:28:21;22.20;99.90
10433;DHT22;5263;48.680;9.004;2022-07-29T07:30:47;22.20;99.90
10433;DHT22;5263;48.680;9.004;2022-07-29T07:33:13;22.40;99.90
10433;DHT22;5263;48.680;9.004;2022-07-29T07:35:39;22.60;99.90
10433;DHT22;5263;48.680;9.004;2022-07-29T07:38:05;22.90;99.90
10433;DHT22;5263;48.680;9.004;2022-07-29T07:40:31;23.10;99.90
10433;DHT22;5263;48.680;9.004;2022-07-29T07:42:57;23.00;99.90
10433;DHT22;5263;48.680;9.004;2022-07-29T07:45:23;23.00;99.90
10433;DHT22;5263;48.680;9.004;2022-07-29T07:47:49;22.60;99.90
10433;DHT22;5263;48.680;9.004;2022-07-29T07:50:15;22.50;99.90
10433;DHT22;5263;48.680;9.004;2022-07-29T07:52:50;22.50;99.90
10433;DHT22;5263;48.680;9.004;2022-07-29T07:55:16;22.50;99.90
10433;DHT22;5263;48.680;9.004;2022-07-29T07:57:42;22.70;99.90
10433;DHT22;5263;48.680;9.004;2022-07-29T08:00:08;23.00;99.90
10433;DHT22;5263;48.680;9.004;2022-07-29T08:02:34;23.20;99.90
10433;DHT22;5263;48.680;9.004;2022-07-29T08:05:00;23.30;99.90
10433;DHT22;5263;48.680;9.004;2022-07-29T08:07:25;23.50;99.90
10433;DHT22;5263;48.680;9.004;2022-07-29T08:09:51;23.70;99.90
10433;DHT22;5263;48.680;9.004;2022-07-29T08:35:21;24.80;99.90
10433;DHT22;5263;48.680;9.004;2022-07-29T08:37:47;24.40;99.90
10433;DHT22;5263;48.680;9.004;2022-07-29T08:47:29;24.50;99.90
10433;DHT22;5263;48.680;9.004;2022-07-29T08:49:55;24.50;99.90
10433;DHT22;5263;48.680;9.004;2022-07-29T08:52:36;24.50;99.90
10433;DHT22;5263;48.680;9.004;2022-07-29T08:55:03;24.60;99.90
10433;DHT22;5263;48.680;9.004;2022-07-29T08:57:29;24.70;99.90
10433;DHT22;5263;48.680;9.004;2022-07-29T08:59:57;24.80;99.90
10433;DHT22;5263;48.680;9.004;2022-07-29T09:02:28;24.80;99.90
10433;DHT22;5263;48.680;9.004;2022-07-29T09:04:54;25.00;99.90
10433;DHT22;5263;48.680;9.004;2022-07-29T09:07:21;25.30;99.90
10433;DHT22;5263;48.680;9.004;2022-07-29T09:09:47;25.30;99.90
10433;DHT22;5263;48.680;9.004;2022-07-29T09:12:13;25.50;99.90
10433;DHT22;5263;48.680;9.004;2022-07-29T09:14:39;25.70;99.90
10433;DHT22;5263;48.680;9.004;2022-07-29T09:17:06;25.70;99.90
10433;DHT22;5263;48.680;9.004;2022-07-29T09:19:34;25.90;99.90
10433;DHT22;5263;48.680;9.004;2022-07-29T09:22:04;26.10;98.90
10433;DHT22;5263;48.680;9.004;2022-07-29T09:27:08;26.90;97.90
10433;DHT22;5263;48.680;9.004;2022-07-29T09:29:34;27.00;96.00
10433;DHT22;5263;48.680;9.004;2022-07-29T09:32:00;27.00;96.20
10433;DHT22;5263;48.680;9.004;2022-07-29T09:37:55;27.40;94.80
10433;DHT22;5263;48.680;9.004;2022-07-29T09:40:26;27.60;94.30
10433;DHT22;5263;48.680;9.004;2022-07-29T09:42:52;27.70;93.20
10433;DHT22;5263;48.680;9.004;2022-07-29T09:45:33;27.80;91.20
10433;DHT22;5263;48.680;9.004;2022-07-29T09:48:00;27.80;90.70
10433;DHT22;5263;48.680;9.004;2022-07-29T09:50:42;28.00;90.80
10433;DHT22;5263;48.680;9.004;2022-07-29T09:53:09;28.00;91.60
10433;DHT22;5263;48.680;9.004;2022-07-29T09:55:50;27.90;89.60
10433;DHT22;5263;48.680;9.004;2022-07-29T09:58:18;28.40;91.00
10433;DHT22;5263;48.680;9.004;2022-07-29T10:00:45;28.70;91.70
10433;DHT22;5263;48.680;9.004;2022-07-29T10:03:11;28.90;91.10
10433;DHT22;5263;48.680;9.004;2022-07-29T10:05:37;28.70;90.90
10433;DHT22;5263;48.680;9.004;2022-07-29T10:08:05;28.90;89.10
10433;DHT22;5263;48.680;9.004;2022-07-29T10:10:39;29.00;90.00
10433;DHT22;5263;48.680;9.004;2022-07-29T10:20:43;28.60;83.70
10433;DHT22;5263;48.680;9.004;2022-07-29T10:23:21;28.40;84.00
10433;DHT22;5263;48.680;9.004;2022-07-29T10:25:56;28.40;84.20
10433;DHT22;5263;48.680;9.004;2022-07-29T10:38:17;24.20;98.00
10433;DHT22;5263;48.680;9.004;2022-07-29T10:41:05;23.60;99.90
10433;DHT22;5263;48.680;9.004;2022-07-29T10:44:08;23.40;99.90
10433;DHT22;5263;48.680;9.004;2022-07-29T10:46:39;22.90;99.90
10433;DHT22;5263;48.680;9.004;2022-07-29T10:52:06;22.30;99.90
10433;DHT22;5263;48.680;9.004;2022-07-29T10:59:39;20.30;99.90
10433;DHT22;5263;48.680;9.004;2022-07-29T11:07:25;18.90;99.90
10433;DHT22;5263;48.680;9.004;2022-07-29T11:15:08;19.10;99.90
10433;DHT22;5263;48.680;9.004;2022-07-29T11:20:40;18.70;99.90
10433;DHT22;5263;48.680;9.004;2022-07-29T11:31:46;19.20;99.90
10433;DHT22;5263;48.680;9.004;2022-07-29T11:34:30;19.10;99.90
10433;DHT22;5263;48.680;9.004;2022-07-29T11:45:16;19.30;99.90
10433;DHT22;5263;48.680;9.004;2022-07-29T11:50:14;19.60;99.90
10433;DHT22;5263;48.680;9.004;2022-07-29T11:52:45;19.60;99.90
10433;DHT22;5263;48.680;9.004;2022-07-29T11:55:16;19.60;99.90
10433;DHT22;5263;48.680;9.004;2022-07-29T11:57:53;19.70;99.90
10433;DHT22;5263;48.680;9.004;2022-07-29T12:00:45;19.80;99.90
10433;DHT22;5263;48.680;9.004;2022-07-29T12:03:11;19.90;99.90
10433;DHT22;5263;48.680;9.004;2022-07-29T12:05:44;20.10;99.90
10433;DHT22;5263;48.680;9.004;2022-07-29T12:08:12;20.50;99.90
10433;DHT22;5263;48.680;9.004;2022-07-29T12:10:38;20.80;99.90
10433;DHT22;5263;48.680;9.004;2022-07-29T12:13:04;21.20;99.90
10433;DHT22;5263;48.680;9.004;2022-07-29T12:15:30;21.50;99.90
10433;DHT22;5263;48.680;9.004;2022-07-29T12:17:56;21.80;99.90
10433;DHT22;5263;48.680;9.004;2022-07-29T12:20:26;21.90;99.90
10433;DHT22;5263;48.680;9.004;2022-07-29T12:22:53;22.10;99.90
10433;DHT22;5263;48.680;9.004;2022-07-29T12:25:20;22.20;99.90
10433;DHT22;5263;48.680;9.004;2022-07-29T12:27:46;22.20;99.90
10433;DHT22;5263;48.680;9.004;2022-07-29T12:30:14;22.40;99.90
10433;DHT22;5263;48.680;9.004;2022-07-29T12:32:46;22.20;99.90
10433;DHT22;5263;48.680;9.004;2022-07-29T12:35:17;22.20;99.90
10433;DHT22;5263;48.680;9.004;2022-07-29T12:37:45;22.00;99.90
10433;DHT22;5263;48.680;9.004;2022-07-29T12:40:14;21.80;99.90
10433;DHT22;5263;48.680;9.004;2022-07-29T12:43:04;21.70;99.90
10433;DHT22;5263;48.680;9.004;2022-07-29T12:45:30;21.60;99.90
10433;DHT22;5263;48.680;9.004;2022-07-29T12:47:56;21.30;99.90
10433;DHT22;5263;48.680;9.004;2022-07-29T12:50:22;21.10;99.90
10433;DHT22;5263;48.680;9.004;2022-07-29T12:52:48;20.90;99.90
10433;DHT22;5263;48.680;9.004;2022-07-29T12:55:14;20.80;99.90
10433;DHT22;5263;48.680;9.004;2022-07-29T12:57:50;20.40;99.90
10433;DHT22;5263;48.680;9.004;2022-07-29T13:00:22;20.30;99.90
10433;DHT22;5263;48.680;9.004;2022-07-29T13:02:55;19.90;99.90
10433;DHT22;5263;48.680;9.004;2022-07-29T13:05:21;19.70;99.90
10433;DHT22;5263;48.680;9.004;2022-07-29T13:07:47;19.30;99.90
10433;DHT22;5263;48.680;9.004;2022-07-29T13:10:20;18.90;99.90
10433;DHT22;5263;48.680;9.004;2022-07-29T13:13:09;18.70;99.90
10433;DHT22;5263;48.680;9.004;2022-07-29T13:15:37;18.40;99.90
10433;DHT22;5263;48.680;9.004;2022-07-29T13:18:04;18.30;99.90
10433;DHT22;5263;48.680;9.004;2022-07-29T13:20:30;18.50;99.90
10433;DHT22;5263;48.680;9.004;2022-07-29T13:22:57;18.60;99.90
10433;DHT22;5263;48.680;9.004;2022-07-29T13:25:29;18.70;99.90
10433;DHT22;5263;48.680;9.004;2022-07-29T13:27:55;18.90;99.90
10433;DHT22;5263;48.680;9.004;2022-07-29T13:30:21;19.00;99.90
10433;DHT22;5263;48.680;9.004;2022-07-29T13:32:47;19.30;99.90
10433;DHT22;5263;48.680;9.004;2022-07-29T13:35:13;19.50;99.90
10433;DHT22;5263;48.680;9.004;2022-07-29T13:37:39;19.60;99.90
10433;DHT22;5263;48.680;9.004;2022-07-29T13:40:08;19.80;99.90
10433;DHT22;5263;48.680;9.004;2022-07-29T13:42:35;20.10;99.90
10433;DHT22;5263;48.680;9.004;2022-07-29T13:45:01;20.40;99.90
10433;DHT22;5263;48.680;9.004;2022-07-29T13:47:27;20.90;99.90
10433;DHT22;5263;48.680;9.004;2022-07-29T13:49:54;21.30;99.90
10433;DHT22;5263;48.680;9.004;2022-07-29T13:52:20;21.80;99.90
10433;DHT22;5263;48.680;9.004;2022-07-29T13:54:46;22.10;99.90
10433;DHT22;5263;48.680;9.004;2022-07-29T13:57:12;22.30;99.90
10433;DHT22;5263;48.680;9.004;2022-07-29T13:59:39;22.50;99.90
10433;DHT22;5263;48.680;9.004;2022-07-29T14:02:06;22.90;99.90
10433;DHT22;5263;48.680;9.004;2022-07-29T14:04:32;23.10;99.90
10433;DHT22;5263;48.680;9.004;2022-07-29T14:06:58;23.30;99.90
10433;DHT22;5263;48.680;9.004;2022-07-29T14:09:24;23.30;99.90
10433;DHT22;5263;48.680;9.004;2022-07-29T14:11:50;23.40;99.90
10433;DHT22;5263;48.680;9.004;2022-07-29T14:14:17;23.50;99.90
10433;DHT22;5263;48.680;9.004;2022-07-29T14:16:42;23.40;99.90
10433;DHT22;5263;48.680;9.004;2022-07-29T14:19:08;23.40;99.90
10433;DHT22;5263;48.680;9.004;2022-07-29T14:21:33;23.30;99.90
10433;DHT22;5263;48.680;9.004;2022-07-29T14:24:00;23.30;99.90
10433;DHT22;5263;48.680;9.004;2022-07-29T14:26:25;23.50;99.90
10433;DHT22;5263;48.680;9.004;2022-07-29T14:28:51;23.60;99.90
10433;DHT22;5263;48.680;9.004;2022-07-29T14:31:17;23.70;99.90
10433;DHT22;5263;48.680;9.004;2022-07-29T14:33:42;23.90;99.90
10433;DHT22;5263;48.680;9.004;2022-07-29T14:36:08;23.90;99.90
10433;DHT22;5263;48.680;9.004;2022-07-29T14:38:35;24.20;99.90
10433;DHT22;5263;48.680;9.004;2022-07-29T14:41:01;24.40;99.90
10433;DHT22;5263;48.680;9.004;2022-07-29T14:43:26;24.70;99.90
10433;DHT22;5263;48.680;9.004;2022-07-29T14:45:52;24.90;99.90
10433;DHT22;5263;48.680;9.004;2022-07-29T14:48:18;24.90;99.90
10433;DHT22;5263;48.680;9.004;2022-07-29T14:50:43;24.90;99.90
10433;DHT22;5263;48.680;9.004;2022-07-29T14:53:09;24.80;99.90
10433;DHT22;5263;48.680;9.004;2022-07-29T14:55:35;24.60;99.90
10433;DHT22;5263;48.680;9.004;2022-07-29T14:58:00;24.80;99.90
10433;DHT22;5263;48.680;9.004;2022-07-29T15:00:26;24.80;99.90
10433;DHT22;5263;48.680;9.004;2022-07-29T15:02:52;24.90;99.90
10433;DHT22;5263;48.680;9.004;2022-07-29T15:05:18;24.80;99.90
10433;DHT22;5263;48.680;9.004;2022-07-29T15:07:43;24.70;99.90
10433;DHT22;5263;48.680;9.004;2022-07-29T15:10:09;24.70;99.90
10433;DHT22;5263;48.680;9.004;2022-07-29T15:12:35;24.60;99.90
10433;DHT22;5263;48.680;9.004;2022-07-29T15:15:00;24.60;99.90
10433;DHT22;5263;48.680;9.004;2022-07-29T15:17:26;24.40;99.90
10433;DHT22;5263;48.680;9.004;2022-07-29T15:19:52;24.30;99.90
10433;DHT22;5263;48.680;9.004;2022-07-29T15:22:24;24.30;99.90
10433;DHT22;5263;48.680;9.004;2022-07-29T15:24:49;24.30;99.90
10433;DHT22;5263;48.680;9.004;2022-07-29T15:27:15;24.20;99.90
10433;DHT22;5263;48.680;9.004;2022-07-29T15:29:41;24.20;99.90
10433;DHT22;5263;48.680;9.004;2022-07-29T15:32:07;24.10;99.90
10433;DHT22;5263;48.680;9.004;2022-07-29T15:34:35;24.00;99.90
10433;DHT22;5263;48.680;9.004;2022-07-29T15:37:00;24.00;99.90
10433;DHT22;5263;48.680;9.004;2022-07-29T15:39:26;24.00;99.90
10433;DHT22;5263;48.680;9.004;2022-07-29T15:41:52;24.00;99.90
10433;DHT22;5263;48.680;9.004;2022-07-29T15:44:18;23.90;99.90
10433;DHT22;5263;48.680;9.004;2022-07-29T15:46:43;23.80;99.90
10433;DHT22;5263;48.680;9.004;2022-07-29T15:49:28;23.80;99.90
10433;DHT22;5263;48.680;9.004;2022-07-29T15:52:08;23.70;99.90
10433;DHT22;5263;48.680;9.004;2022-07-29T15:54:38;23.90;99.90
10433;DHT22;5263;48.680;9.004;2022-07-29T15:57:04;23.90;99.90
10433;DHT22;5263;48.680;9.004;2022-07-29T15:59:30;23.80;99.90
10433;DHT22;5263;48.680;9.004;2022-07-29T16:01:56;23.80;99.90
10433;DHT22;5263;48.680;9.004;2022-07-29T16:04:21;24.00;99.90
10433;DHT22;5263;48.680;9.004;2022-07-29T16:06:48;24.20;99.90
10433;DHT22;5263;48.680;9.004;2022-07-29T16:09:14;24.20;99.90
10433;DHT22;5263;48.680;9.004;2022-07-29T16:11:41;24.10;99.90
10433;DHT22;5263;48.680;9.004;2022-07-29T16:14:07;24.10;99.90
10433;DHT22;5263;48.680;9.004;2022-07-29T16:16:33;23.80;99.90
10433;DHT22;5263;48.680;9.004;2022-07-29T16:18:59;23.60;99.90
10433;DHT22;5263;48.680;9.004;2022-07-29T16:21:25;23.40;99.90
10433;DHT22;5263;48.680;9.004;2022-07-29T16:23:50;23.60;99.90
10433;DHT22;5263;48.680;9.004;2022-07-29T16:26:17;23.50;99.90
10433;DHT22;5263;48.680;9.004;2022-07-29T16:28:42;23.30;99.90
10433;DHT22;5263;48.680;9.004;2022-07-29T16:31:08;23.10;99.90
10433;DHT22;5263;48.680;9.004;2022-07-29T16:33:34;23.10;99.90
10433;DHT22;5263;48.680;9.004;2022-07-29T16:36:00;23.30;99.90
10433;DHT22;5263;48.680;9.004;2022-07-29T16:38:26;23.10;99.90
10433;DHT22;5263;48.680;9.004;2022-07-29T16:40:51;23.00;99.90
10433;DHT22;5263;48.680;9.004;2022-07-29T16:43:17;23.00;99.90
10433;DHT22;5263;48.680;9.004;2022-07-29T16:45:43;23.00;99.90
10433;DHT22;5263;48.680;9.004;2022-07-29T16:48:09;22.80;99.90
10433;DHT22;5263;48.680;9.004;2022-07-29T16:50:35;22.90;99.90
10433;DHT22;5263;48.680;9.004;2022-07-29T16:53:00;22.80;99.90
10433;DHT22;5263;48.680;9.004;2022-07-29T16:55:26;22.90;99.90
10433;DHT22;5263;48.680;9.004;2022-07-29T16:57:52;22.90;99.90
10433;DHT22;5263;48.680;9.004;2022-07-29T17:00:19;22.90;99.90
10433;DHT22;5263;48.680;9.004;2022-07-29T17:02:45;22.80;99.90
10433;DHT22;5263;48.680;9.004;2022-07-29T17:05:11;22.80;99.90
10433;DHT22;5263;48.680;9.004;2022-07-29T17:07:37;22.90;99.90
10433;DHT22;5263;48.680;9.004;2022-07-29T17:10:05;22.90;99.90
10433;DHT22;5263;48.680;9.004;2022-07-29T17:12:33;22.80;99.90
10433;DHT22;5263;48.680;9.004;2022-07-29T17:15:01;22.80;99.90
10433;DHT22;5263;48.680;9.004;2022-07-29T17:17:26;22.80;99.90
10433;DHT22;5263;48.680;9.004;2022-07-29T17:19:52;22.80;99.90
10433;DHT22;5263;48.680;9.004;2022-07-29T17:22:17;22.90;99.90
10433;DHT22;5263;48.680;9.004;2022-07-29T17:24:43;22.90;99.90
10433;DHT22;5263;48.680;9.004;2022-07-29T17:27:09;23.20;99.90